DEKMB EDDN-EDDN
Flight info
| Callsign | DEKMB |
|---|---|
| Flight time | N/A |
| Altitude | 3000 |
| Route | DCT |
| Aircraft | C172/L-SDE2E3FGHIRWXY/IB1 |
Departure
| Time | 2026-05-05 13:11 |
|---|---|
| Airport | Nuremberg Airport (EDDN) |
Arrival
| Time | N/A |
|---|---|
| Airport | Nuremberg Airport (EDDN) |
| Time | Latitude | Longitude | Altitude | Speed | Heading |
|---|---|---|---|---|---|
| 2026-05-05 12:46 | 49.49545 | 11.06990 | 1024 ft | 0 kts | 188° |
| 2026-05-05 13:01 | 49.49521 | 11.07001 | 1024 ft | 4 kts | 109° |
| 2026-05-05 13:01 | 49.49516 | 11.07040 | 1024 ft | 3 kts | 101° |
| 2026-05-05 13:01 | 49.49514 | 11.07052 | 1024 ft | 0 kts | 102° |
| 2026-05-05 13:01 | 49.49508 | 11.07128 | 1024 ft | 10 kts | 92° |
| 2026-05-05 13:02 | 49.49535 | 11.07198 | 1024 ft | 8 kts | 7° |
| 2026-05-05 13:02 | 49.49595 | 11.07211 | 1024 ft | 10 kts | 9° |
| 2026-05-05 13:02 | 49.49636 | 11.07261 | 1024 ft | 8 kts | 103° |
| 2026-05-05 13:02 | 49.49625 | 11.07359 | 1024 ft | 10 kts | 99° |
| 2026-05-05 13:03 | 49.49614 | 11.07483 | 1024 ft | 12 kts | 98° |
| 2026-05-05 13:03 | 49.49601 | 11.07601 | 1024 ft | 11 kts | 93° |
| 2026-05-05 13:03 | 49.49591 | 11.07715 | 1024 ft | 10 kts | 89° |
| 2026-05-05 13:03 | 49.49632 | 11.07768 | 1024 ft | 8 kts | 8° |
| 2026-05-05 13:04 | 49.49684 | 11.07760 | 1024 ft | 7 kts | 333° |
| 2026-05-05 13:04 | 49.49722 | 11.07730 | 1024 ft | 5 kts | 334° |
| 2026-05-05 13:04 | 49.49748 | 11.07710 | 1024 ft | 3 kts | 330° |
| 2026-05-05 13:04 | 49.49758 | 11.07702 | 1024 ft | 0 kts | 334° |
| 2026-05-05 13:05 | 49.49763 | 11.07698 | 1024 ft | 6 kts | 330° |
| 2026-05-05 13:05 | 49.49836 | 11.07642 | 1025 ft | 11 kts | 333° |
| 2026-05-05 13:05 | 49.49889 | 11.07580 | 1025 ft | 10 kts | 297° |
| 2026-05-05 13:06 | 49.49921 | 11.07302 | 1021 ft | 49 kts | 279° |
| 2026-05-05 13:06 | 49.49988 | 11.06587 | 1024 ft | 83 kts | 279° |
| 2026-05-05 13:06 | 49.50011 | 11.05648 | 1146 ft | 89 kts | 251° |
| 2026-05-05 13:06 | 49.49521 | 11.05131 | 1291 ft | 94 kts | 193° |
| 2026-05-05 13:07 | 49.48839 | 11.05020 | 1345 ft | 105 kts | 187° |
| 2026-05-05 13:07 | 49.48162 | 11.05233 | 1471 ft | 101 kts | 128° |
| 2026-05-05 13:07 | 49.48058 | 11.06269 | 1504 ft | 105 kts | 89° |
| 2026-05-05 13:07 | 49.48089 | 11.07437 | 1499 ft | 112 kts | 87° |
| 2026-05-05 13:08 | 49.48096 | 11.08633 | 1542 ft | 111 kts | 87° |
| 2026-05-05 13:08 | 49.48157 | 11.09856 | 1526 ft | 112 kts | 85° |
| 2026-05-05 13:08 | 49.48331 | 11.10933 | 1531 ft | 102 kts | 37° |
| 2026-05-05 13:08 | 49.48969 | 11.11240 | 1454 ft | 93 kts | 7° |
| 2026-05-05 13:09 | 49.49546 | 11.11157 | 1383 ft | 82 kts | 304° |
| 2026-05-05 13:09 | 49.49643 | 11.10297 | 1167 ft | 84 kts | 277° |
| 2026-05-05 13:09 | 49.49709 | 11.09472 | 1067 ft | 71 kts | 278° |
| 2026-05-05 13:09 | 49.49777 | 11.08798 | 1033 ft | 56 kts | 278° |
| 2026-05-05 13:10 | 49.49836 | 11.08124 | 1062 ft | 73 kts | 276° |
| 2026-05-05 13:10 | 49.49872 | 11.07352 | 1255 ft | 75 kts | 272° |
| 2026-05-05 13:10 | 49.49879 | 11.06475 | 1365 ft | 87 kts | 247° |
| 2026-05-05 13:10 | 49.49356 | 11.05939 | 1474 ft | 98 kts | 206° |
| 2026-05-05 13:11 | 49.48699 | 11.05562 | 1580 ft | 100 kts | 202° |
| 2026-05-05 13:11 | 49.48092 | 11.04935 | 1582 ft | 110 kts | 229° |
| 2026-05-05 13:11 | 49.47507 | 11.04161 | 1625 ft | 114 kts | 214° |
| 2026-05-05 13:11 | 49.46811 | 11.03547 | 1719 ft | 116 kts | 208° |
| 2026-05-05 13:12 | 49.46079 | 11.02991 | 1778 ft | 119 kts | 208° |
| 2026-05-05 13:12 | 49.45344 | 11.02429 | 1859 ft | 120 kts | 207° |